Terminal Aerodrome Forecast
Issued by NWS

Home | Current Version | Previous Version | Text Only | Print | Product List | Glossary On
Versions: 1 2 3 4 5 6 7 8 9 10 11 12 13 14 15 16 17
000
FTUS43 KEAX 140758 AAA
TAFMKC
TAF AMD
KMKC 140758Z 1408/1506 18006KT P6SM BKN010
     FM140900 18006KT 4SM BR BKN008
      TEMPO 1409/1413 BKN006
     FM141300 19006KT P6SM BKN010
     FM141500 19006KT P6SM BKN030
     FM141600 20007KT P6SM BKN140=

USA.gov is the U.S. government's official web portal to all federal, state and local government web resources and services.